createdAt,value
2018-09-04T00:04:11.645Z,75.31
2018-09-04T00:09:15.238Z,75.26
2018-09-04T00:14:18.747Z,75.00
2018-09-04T00:19:22.306Z,75.24
2018-09-04T00:24:25.788Z,74.69
2018-09-04T00:29:29.238Z,75.07
2018-09-04T00:34:32.840Z,74.79
2018-09-04T00:39:36.305Z,75.17
2018-09-04T00:44:39.733Z,74.55
2018-09-04T00:49:43.233Z,74.77
2018-09-04T00:54:46.687Z,75.33
2018-09-04T00:59:50.208Z,75.36
2018-09-04T01:04:53.712Z,75.21
2018-09-04T01:09:57.295Z,74.66
2018-09-04T01:15:00.952Z,74.59
2018-09-04T01:20:05.261Z,74.66
2018-09-04T01:25:08.758Z,74.73
2018-09-04T01:30:12.289Z,74.69
2018-09-04T01:35:15.848Z,74.44
2018-09-04T01:40:19.320Z,74.24
2018-09-04T01:45:22.798Z,74.55
2018-09-04T01:50:26.250Z,74.38
2018-09-04T01:56:32.597Z,73.83
2018-09-04T02:01:36.846Z,74.04
2018-09-04T02:06:40.393Z,74.27
2018-09-04T02:11:43.939Z,74.35
2018-09-04T02:16:47.509Z,73.89
2018-09-04T02:21:51.421Z,74.34
2018-09-04T02:26:54.968Z,74.16
2018-09-04T02:31:58.533Z,74.73
2018-09-04T02:37:02.072Z,74.38
2018-09-04T02:42:06.160Z,74.50
2018-09-04T02:47:09.685Z,74.04
2018-09-04T02:52:13.116Z,73.86
2018-09-04T02:57:16.569Z,73.68
2018-09-04T03:02:20.039Z,74.68
2018-09-04T03:07:23.585Z,74.58
2018-09-04T03:12:27.129Z,74.67
2018-09-04T03:17:30.706Z,74.21
2018-09-04T03:22:34.230Z,74.99
2018-09-04T03:27:37.744Z,74.79
2018-09-04T03:32:41.256Z,75.18
2018-09-04T03:37:44.815Z,75.33
2018-09-04T03:42:48.372Z,75.71
2018-09-04T03:47:51.914Z,75.45
2018-09-04T03:52:55.453Z,75.03
2018-09-04T03:57:59.029Z,75.39
2018-09-04T04:03:02.486Z,75.79
2018-09-04T04:08:05.961Z,75.36
2018-09-04T04:13:09.545Z,75.66
2018-09-04T04:18:13.131Z,75.52
2018-09-04T04:23:16.685Z,75.87
2018-09-04T04:28:20.175Z,76.25
2018-09-04T04:33:23.762Z,76.46
2018-09-04T04:38:27.294Z,76.67
2018-09-04T04:43:30.806Z,76.30
2018-09-04T04:48:34.317Z,75.83
2018-09-04T04:53:37.870Z,76.20
2018-09-04T04:58:41.349Z,75.50
2018-09-04T05:03:44.812Z,75.91
2018-09-04T05:08:48.277Z,75.68
2018-09-04T05:13:51.851Z,75.33
2018-09-04T05:18:55.318Z,75.88
2018-09-04T05:23:58.917Z,75.61
2018-09-04T05:29:02.407Z,75.50
2018-09-04T05:34:05.888Z,75.93
2018-09-04T05:39:10.325Z,75.59
2018-09-04T05:44:13.857Z,75.74
2018-09-04T05:49:19.701Z,75.82
2018-09-04T05:54:23.193Z,75.57
2018-09-04T05:59:26.786Z,75.62
2018-09-04T06:04:30.282Z,75.32
2018-09-04T06:09:33.822Z,75.12
2018-09-04T06:14:37.374Z,75.55
2018-09-04T06:19:40.796Z,75.95
2018-09-04T06:24:44.286Z,75.51
2018-09-04T06:29:47.795Z,75.26
2018-09-04T06:34:51.333Z,74.67
2018-09-04T06:39:55.011Z,75.07
2018-09-04T06:44:58.500Z,75.29
2018-09-04T06:50:02.309Z,74.98
2018-09-04T06:55:06.039Z,74.10
2018-09-04T07:00:12.137Z,74.46
2018-09-04T07:05:15.696Z,73.43
2018-09-04T07:10:19.256Z,72.82
2018-09-04T07:15:22.792Z,72.03
2018-09-04T07:20:26.321Z,72.07
2018-09-04T07:25:29.789Z,71.42
2018-09-04T07:30:33.277Z,70.04
2018-09-04T07:35:36.808Z,69.46
2018-09-04T07:40:40.522Z,70.73
2018-09-04T07:45:44.049Z,70.58
2018-09-04T07:50:47.646Z,68.76
2018-09-04T07:55:51.184Z,67.47
2018-09-04T08:00:54.746Z,67.59
2018-09-04T08:05:58.219Z,68.06
2018-09-04T08:11:01.809Z,67.40
2018-09-04T08:16:05.646Z,66.22
2018-09-04T08:21:09.348Z,67.97
2018-09-04T08:26:12.950Z,67.91
2018-09-04T08:31:16.462Z,67.88
2018-09-04T08:36:19.961Z,66.89
2018-09-04T08:41:23.469Z,66.39
2018-09-04T08:46:26.955Z,66.44
2018-09-04T08:51:30.415Z,65.86
2018-09-04T08:56:33.901Z,66.19
2018-09-04T09:01:37.385Z,66.37
2018-09-04T09:06:40.829Z,65.08
2018-09-04T09:11:44.350Z,63.95
2018-09-04T09:16:47.908Z,64.02
2018-09-04T09:21:51.325Z,63.00
2018-09-04T09:26:54.943Z,62.17
2018-09-04T09:31:58.455Z,61.47
2018-09-04T09:37:01.965Z,60.63
2018-09-04T09:42:05.425Z,58.63
2018-09-04T09:47:08.930Z,60.44
2018-09-04T09:52:12.483Z,60.25
2018-09-04T09:57:16.014Z,58.56
2018-09-04T10:02:22.089Z,59.59
2018-09-04T10:07:25.663Z,58.61
2018-09-04T10:12:29.090Z,57.39
2018-09-04T10:17:32.500Z,55.72
2018-09-04T10:22:35.948Z,57.09
2018-09-04T10:27:39.478Z,55.02
2018-09-04T10:32:54.015Z,55.70
2018-09-04T10:37:57.521Z,54.11
2018-09-04T10:43:00.966Z,53.55
2018-09-04T10:48:04.531Z,52.83
2018-09-04T10:53:08.060Z,52.24
2018-09-04T10:58:11.524Z,52.45
2018-09-04T11:03:14.987Z,56.49
2018-09-04T11:08:18.996Z,58.49
2018-09-04T11:13:22.607Z,56.28
2018-09-04T11:18:26.065Z,53.47
2018-09-04T11:23:29.776Z,55.89
2018-09-04T11:28:35.185Z,34.58
2018-09-04T11:33:39.077Z,29.64
2018-09-04T11:38:42.587Z,29.23
2018-09-04T11:43:46.137Z,25.45
2018-09-04T11:48:49.682Z,25.12
2018-09-04T11:53:53.138Z,22.26
2018-09-04T11:58:56.635Z,22.05
2018-09-04T12:04:00.112Z,26.40
2018-09-04T12:09:03.820Z,33.91
2018-09-04T12:14:07.247Z,39.41
2018-09-04T12:19:10.741Z,43.02
2018-09-04T12:24:14.179Z,44.18
2018-09-04T12:29:17.658Z,39.17
2018-09-04T12:34:21.230Z,28.64
2018-09-04T12:39:24.701Z,21.67
2018-09-04T12:44:28.365Z,20.02
2018-09-04T12:49:31.769Z,17.72
2018-09-04T12:54:35.378Z,18.05
2018-09-04T12:59:38.922Z,17.36
2018-09-04T13:04:42.377Z,17.52
2018-09-04T13:09:45.851Z,17.21
2018-09-04T13:14:49.486Z,20.10
2018-09-04T13:19:53.040Z,21.25
2018-09-04T13:24:56.535Z,24.21
2018-09-04T13:30:00.213Z,27.38
2018-09-04T13:35:03.861Z,27.05
2018-09-04T13:40:07.937Z,26.96
2018-09-04T13:45:11.433Z,24.97
2018-09-04T13:50:14.965Z,27.96
2018-09-04T13:55:18.399Z,31.55
2018-09-04T14:00:22.864Z,34.28
2018-09-04T14:05:26.397Z,33.87
2018-09-04T14:10:29.868Z,34.99
2018-09-04T14:15:33.388Z,34.61
2018-09-04T14:20:43.584Z,34.31
2018-09-04T14:25:47.025Z,34.68
2018-09-04T14:30:50.588Z,32.76
2018-09-04T14:35:54.084Z,34.05
2018-09-04T14:40:57.614Z,35.32
2018-09-04T14:46:01.149Z,35.28
2018-09-04T14:51:04.593Z,36.37
2018-09-04T14:56:08.094Z,35.86
2018-09-04T15:01:11.571Z,36.32
2018-09-04T15:06:15.121Z,35.60
2018-09-04T15:11:18.621Z,36.03
2018-09-04T15:16:22.141Z,36.58
2018-09-04T15:21:29.881Z,37.86
2018-09-04T15:26:33.324Z,38.34
2018-09-04T15:31:36.944Z,38.16
2018-09-04T15:36:40.364Z,36.21
2018-09-04T15:41:43.841Z,36.80
2018-09-04T15:46:47.373Z,36.66
2018-09-04T15:51:50.837Z,37.40
2018-09-04T15:56:54.423Z,36.50
2018-09-04T16:01:57.811Z,36.80
2018-09-04T16:07:01.297Z,33.33
2018-09-04T16:12:04.797Z,35.40
2018-09-04T16:17:08.361Z,35.10
2018-09-04T16:22:11.834Z,35.83
2018-09-04T16:27:15.873Z,34.77
2018-09-04T16:32:19.350Z,37.08
2018-09-04T16:37:22.855Z,37.37
2018-09-04T16:42:26.448Z,37.29
2018-09-04T16:47:30.481Z,39.06
2018-09-04T16:52:33.926Z,40.26
2018-09-04T16:57:37.410Z,41.65
2018-09-04T17:02:40.950Z,41.75
2018-09-04T17:07:44.533Z,42.55
2018-09-04T17:12:48.011Z,42.72
2018-09-04T17:17:51.585Z,43.75
2018-09-04T17:22:55.368Z,44.15
2018-09-04T17:27:59.130Z,44.03
2018-09-04T17:33:02.966Z,44.71
2018-09-04T17:38:06.532Z,45.56
2018-09-04T17:43:13.426Z,45.92
2018-09-04T17:48:17.038Z,47.16
2018-09-04T17:53:23.967Z,47.49
2018-09-04T17:58:28.118Z,48.57
2018-09-04T18:03:32.494Z,50.34
2018-09-04T18:08:36.251Z,50.49
2018-09-04T18:13:39.834Z,51.63
2018-09-04T18:18:43.365Z,51.46
2018-09-04T18:23:46.966Z,53.79
2018-09-04T18:28:50.912Z,51.75
2018-09-04T18:33:54.442Z,51.05
2018-09-04T18:38:58.025Z,52.26
2018-09-04T18:44:01.573Z,53.42
2018-09-04T18:49:06.390Z,53.72
2018-09-04T18:54:11.065Z,53.93
2018-09-04T18:59:14.549Z,54.70
2018-09-04T19:04:19.282Z,55.29
2018-09-04T19:09:25.086Z,55.06
2018-09-04T19:14:29.490Z,56.23
2018-09-04T19:19:35.049Z,56.66
2018-09-04T19:24:40.106Z,56.85
2018-09-04T19:29:43.940Z,56.28
2018-09-04T19:34:49.789Z,56.43
2018-09-04T19:39:54.467Z,57.45
2018-09-04T19:45:00.225Z,57.66
2018-09-04T19:50:04.268Z,57.37
2018-09-04T19:55:10.416Z,57.58
2018-09-04T20:00:15.255Z,56.37
2018-09-04T20:05:20.440Z,56.74
2018-09-04T20:10:24.818Z,58.20
2018-09-04T20:15:29.367Z,58.29
2018-09-04T20:20:33.656Z,57.82
2018-09-04T20:25:38.803Z,58.29
2018-09-04T20:30:42.311Z,58.84
2018-09-04T20:35:47.293Z,58.36
2018-09-04T20:40:50.828Z,57.57
2018-09-04T20:45:54.373Z,57.48
2018-09-04T20:50:57.891Z,57.77
2018-09-04T20:56:01.452Z,57.99
2018-09-04T21:01:16.276Z,58.88
2018-09-04T21:06:31.262Z,58.77
2018-09-04T21:11:34.838Z,59.14
2018-09-04T21:16:38.391Z,59.54
2018-09-04T21:21:41.996Z,59.71
2018-09-04T21:26:45.509Z,60.04
2018-09-04T21:31:49.243Z,59.17
2018-09-04T21:36:53.080Z,59.33
2018-09-04T21:41:56.622Z,59.78
2018-09-04T21:47:00.546Z,58.99
2018-09-04T21:52:04.258Z,58.98
2018-09-04T21:57:07.805Z,59.36
2018-09-04T22:02:11.345Z,59.56
2018-09-04T22:07:15.020Z,60.57
2018-09-04T22:12:18.652Z,60.68
2018-09-04T22:17:22.300Z,59.92
2018-09-04T22:22:25.892Z,59.83
2018-09-04T22:27:29.368Z,59.25
2018-09-04T22:32:33.097Z,58.94
2018-09-04T22:37:36.689Z,58.38
2018-09-04T22:42:40.418Z,59.04
2018-09-04T22:47:44.285Z,59.65
2018-09-04T22:52:47.773Z,60.06
2018-09-04T22:57:51.401Z,60.69
2018-09-04T23:02:54.873Z,60.62
2018-09-04T23:07:58.745Z,61.15
2018-09-04T23:13:02.242Z,60.87
2018-09-04T23:18:05.752Z,60.94
2018-09-04T23:23:09.199Z,60.43
2018-09-04T23:28:12.640Z,60.35
2018-09-04T23:33:52.231Z,60.92
2018-09-04T23:38:55.814Z,60.47
2018-09-04T23:43:59.392Z,60.88
2018-09-04T23:49:02.870Z,60.78
2018-09-04T23:54:06.433Z,62.00
2018-09-04T23:59:10.022Z,62.36
